Time;durP1;ratioP1;P1;durP2;ratioP2;P2;SDS_P1;SDS_P2;PMS_P1;PMS_P2;Temp;Humidity;BMP_temperature;BMP_pressure;BME280_temperature;BME280_humidity;BME280_pressure;Samples;Min_cycle;Max_cycle;Signal;HPM_P1;HPM_P2
2022/10/18 00:00:01;;;;;;;21.38;16.85;;;;;;;18.48;71.88;100780.19;5112406;28;20039;-60
2022/10/18 00:02:29;;;;;;;20.92;16.83;;;;;;;18.48;71.81;100785.53;5112742;28;20083;-60
2022/10/18 00:04:56;;;;;;;24.85;18.30;;;;;;;18.47;71.86;100780.31;5112539;28;20077;-61
2022/10/18 00:07:23;;;;;;;23.38;17.42;;;;;;;18.46;71.95;100783.91;5112568;28;20091;-60
2022/10/18 00:09:50;;;;;;;27.67;18.15;;;;;;;18.47;72.16;100797.13;5112272;28;20608;-61
2022/10/18 00:12:17;;;;;;;25.65;18.52;;;;;;;18.47;72.24;100794.47;5112264;28;20071;-60
2022/10/18 00:14:43;;;;;;;21.55;17.98;;;;;;;18.48;72.32;100798.00;5112743;28;20086;-63
2022/10/18 00:17:10;;;;;;;24.60;18.92;;;;;;;18.49;72.33;100797.03;5112061;28;20097;-62
2022/10/18 00:19:37;;;;;;;27.33;18.33;;;;;;;18.50;72.51;100796.06;5110902;28;20549;-61
2022/10/18 00:22:03;;;;;;;24.23;19.10;;;;;;;18.53;72.61;100800.31;5112219;28;20044;-63
2022/10/18 00:24:30;;;;;;;24.95;19.17;;;;;;;18.54;72.34;100800.19;5110882;28;20051;-63
2022/10/18 00:26:57;;;;;;;23.75;19.00;;;;;;;18.56;72.72;100798.28;5112166;28;20466;-60
2022/10/18 00:29:24;;;;;;;26.67;19.17;;;;;;;18.59;72.76;100797.19;5111936;28;20089;-62
2022/10/18 00:31:51;;;;;;;26.15;20.33;;;;;;;18.60;72.67;100799.75;5112288;28;20048;-63
2022/10/18 00:34:17;;;;;;;24.08;20.00;;;;;;;18.63;72.59;100793.34;5112229;28;20404;-64
2022/10/18 00:36:44;;;;;;;26.00;19.98;;;;;;;18.65;72.66;100795.91;5112180;28;20101;-62
2022/10/18 00:39:18;;;;;;;28.45;20.45;;;;;;;18.65;72.94;100798.56;5111629;28;20093;-61
2022/10/18 00:41:46;;;;;;;25.80;19.33;;;;;;;18.69;72.70;100800.03;5110993;28;20083;-60
2022/10/18 00:44:13;;;;;;;22.13;19.38;;;;;;;18.69;72.53;100798.19;5110901;28;20083;-61
2022/10/18 00:46:45;;;;;;;24.08;19.30;;;;;;;18.70;72.88;100796.41;5111833;28;20081;-61
2022/10/18 00:49:14;;;;;;;25.75;19.73;;;;;;;18.73;72.25;100782.84;5110387;28;20142;-63
2022/10/18 00:51:45;;;;;;;23.48;19.90;;;;;;;18.73;72.66;100789.00;5111645;28;20040;-61
2022/10/18 00:54:13;;;;;;;25.13;20.90;;;;;;;18.75;72.59;100783.56;5110610;28;20557;-63
2022/10/18 00:56:40;;;;;;;26.83;23.02;;;;;;;18.78;72.54;100787.81;5110460;28;20565;-63
2022/10/18 00:59:07;;;;;;;30.77;22.48;;;;;;;18.78;72.53;100780.66;5111446;28;20055;-61
2022/10/18 01:01:34;;;;;;;32.08;21.73;;;;;;;18.80;72.14;100785.88;5111572;28;20044;-60
2022/10/18 01:04:01;;;;;;;30.02;22.35;;;;;;;18.81;72.46;100790.25;5111923;28;20039;-61
2022/10/18 01:06:28;;;;;;;32.50;22.48;;;;;;;18.83;72.20;100790.97;5110299;28;20862;-60
2022/10/18 01:09:18;;;;;;;25.92;21.58;;;;;;;18.79;72.92;100785.03;5111538;28;20087;-61
2022/10/18 01:11:51;;;;;;;31.42;21.75;;;;;;;18.83;72.85;100789.16;5111638;28;20102;-63
2022/10/18 01:14:33;;;;;;;29.10;22.23;;;;;;;18.85;72.35;100781.91;5111769;28;20055;-60
2022/10/18 01:17:07;;;;;;;26.63;22.42;;;;;;;18.85;72.30;100784.59;5111508;28;20522;-60
2022/10/18 01:20:04;;;;;;;26.23;21.10;;;;;;;18.81;72.84;100788.44;5110209;28;20044;-61
2022/10/18 01:22:31;;;;;;;28.17;21.67;;;;;;;18.87;72.34;100787.09;5111392;28;20079;-61
2022/10/18 01:25:05;;;;;;;27.38;21.95;;;;;;;18.86;72.46;100783.59;5110159;28;20086;-60
2022/10/18 01:27:34;;;;;;;27.67;22.83;;;;;;;18.87;72.08;100787.97;5112318;28;20476;-60
2022/10/18 01:30:28;;;;;;;30.25;23.73;;;;;;;18.83;72.81;100775.81;5115442;28;20628;-60
2022/10/18 01:33:25;;;;;;;32.60;22.08;;;;;;;18.87;72.32;100769.28;5115502;28;20105;-61
2022/10/18 01:36:24;;;;;;;26.10;20.50;;;;;;;18.86;72.25;100772.94;5110239;28;20101;-61
2022/10/18 01:38:55;;;;;;;34.20;24.58;;;;;;;18.92;71.87;100778.78;5100646;28;20128;-62
2022/10/18 01:41:24;;;;;;;29.60;22.55;;;;;;;18.92;71.90;100762.75;5114080;28;20048;-60
2022/10/18 01:43:56;;;;;;;32.05;23.73;;;;;;;18.92;72.04;100770.75;5114308;28;20101;-61
2022/10/18 01:46:25;;;;;;;36.35;24.17;;;;;;;18.92;72.11;100770.75;5114430;28;20086;-60
2022/10/18 01:48:53;;;;;;;32.10;23.88;;;;;;;18.92;71.89;100768.09;5115106;28;20047;-63
2022/10/18 01:51:29;;;;;;;30.33;21.73;;;;;;;18.88;72.03;100768.31;5114166;28;20047;-63
2022/10/18 01:53:56;;;;;;;31.70;22.60;;;;;;;18.90;71.73;100762.88;5115172;28;20082;-63
2022/10/18 01:56:27;;;;;;;28.02;21.92;;;;;;;18.89;71.73;100759.34;5114050;28;20085;-61
2022/10/18 01:59:31;;;;;;;30.80;22.20;;;;;;;18.83;72.38;100761.63;5114778;28;20146;-61
2022/10/18 02:02:05;;;;;;;24.83;20.58;;;;;;;18.86;72.15;100761.41;5098483;28;20078;-61
2022/10/18 02:05:06;;;;;;;32.47;23.27;;;;;;;18.83;72.13;100759.81;5114830;28;20043;-62
2022/10/18 02:07:41;;;;;;;29.65;22.83;;;;;;;18.86;71.75;100761.41;5114928;28;20586;-61
2022/10/18 02:10:21;;;;;;;30.50;23.48;;;;;;;18.83;71.86;100757.16;5113434;28;20047;-62
2022/10/18 02:12:51;;;;;;;32.42;22.80;;;;;;;18.86;71.62;100761.41;5114609;28;20069;-64
2022/10/18 02:15:31;;;;;;;30.65;23.23;;;;;;;18.83;72.00;100756.28;5114732;28;20044;-61
2022/10/18 02:18:02;;;;;;;31.92;23.35;;;;;;;18.84;71.64;100756.19;5113415;28;20070;-63
2022/10/18 02:20:31;;;;;;;33.97;25.38;;;;;;;18.85;71.64;100757.03;5114723;28;20566;-61
2022/10/18 02:23:00;;;;;;;32.67;24.70;;;;;;;18.85;71.87;100762.38;5114571;28;20134;-61
2022/10/18 02:25:29;;;;;;;36.38;26.77;;;;;;;18.84;71.89;100769.53;5114584;28;20097;-62
2022/10/18 02:27:56;;;;;;;40.13;25.67;;;;;;;18.84;71.83;100772.19;5114677;28;20063;-63
2022/10/18 02:30:29;;;;;;;35.30;25.20;;;;;;;18.82;71.98;100768.81;5113024;28;20496;-61
2022/10/18 02:33:02;;;;;;;38.63;25.73;;;;;;;18.83;71.62;100762.50;5113273;28;20040;-61
2022/10/18 02:35:43;;;;;;;34.13;25.70;;;;;;;18.81;71.80;100756.44;5114550;28;20097;-62
2022/10/18 02:38:13;;;;;;;36.95;24.65;;;;;;;18.82;71.64;100760.81;5113851;28;20087;-61
2022/10/18 02:40:39;;;;;;;34.30;25.38;;;;;;;18.83;71.30;100761.63;5113132;28;20083;-63
2022/10/18 02:43:06;;;;;;;36.95;26.55;;;;;;;18.81;71.50;100761.78;5114369;28;20090;-60
2022/10/18 02:45:32;;;;;;;31.20;23.42;;;;;;;18.80;71.46;100753.88;5114180;28;20466;-63
2022/10/18 02:47:59;;;;;;;37.60;26.67;;;;;;;18.79;71.56;100747.69;5114137;28;20104;-60
2022/10/18 02:50:26;;;;;;;31.75;25.15;;;;;;;18.79;71.79;100750.34;5113664;28;20751;-60
2022/10/18 02:52:53;;;;;;;33.88;24.70;;;;;;;18.78;71.59;100753.13;5114049;28;20050;-61
2022/10/18 02:55:19;;;;;;;31.58;24.83;;;;;;;18.78;71.43;100746.00;5114246;28;20079;-62
2022/10/18 02:57:46;;;;;;;31.48;24.42;;;;;;;18.76;71.74;100742.56;5113935;28;20044;-60
2022/10/18 03:00:13;;;;;;;29.67;23.80;;;;;;;18.77;71.31;100746.09;5113678;28;20090;-62
2022/10/18 03:02:40;;;;;;;33.97;24.35;;;;;;;18.76;71.64;100750.56;5113955;28;20059;-60
2022/10/18 03:05:07;;;;;;;32.25;23.80;;;;;;;18.74;71.43;100747.19;5113617;28;20047;-60
2022/10/18 03:07:34;;;;;;;31.58;23.80;;;;;;;18.74;71.58;100744.53;5113904;28;20143;-61
2022/10/18 03:10:00;;;;;;;31.88;22.67;;;;;;;18.74;71.30;100744.53;5113542;28;20079;-60
2022/10/18 03:12:27;;;;;;;31.73;23.30;;;;;;;18.73;71.39;100743.66;5113719;28;20043;-60
2022/10/18 03:14:54;;;;;;;29.42;23.00;;;;;;;18.73;71.57;100748.16;5113557;28;20078;-60
2022/10/18 03:17:21;;;;;;;29.88;22.70;;;;;;;18.72;71.27;100751.78;5113424;28;20055;-61
2022/10/18 03:19:48;;;;;;;27.40;22.45;;;;;;;18.71;71.51;100753.63;5113143;28;20052;-61
2022/10/18 03:22:14;;;;;;;31.52;24.38;;;;;;;18.70;71.17;100749.25;5113680;28;20090;-61
2022/10/18 03:24:41;;;;;;;32.00;23.80;;;;;;;18.69;71.14;100752.88;5112089;28;20047;-63
2022/10/18 03:27:08;;;;;;;30.08;23.48;;;;;;;18.69;71.42;100749.38;5113485;28;20097;-61
2022/10/18 03:29:35;;;;;;;35.40;24.00;;;;;;;18.69;71.29;100755.53;5113053;28;20131;-59
2022/10/18 03:32:02;;;;;;;34.03;26.67;;;;;;;18.68;71.32;100747.63;5112147;28;20086;-60
2022/10/18 03:34:29;;;;;;;34.92;24.95;;;;;;;18.68;71.40;100752.97;5113082;28;20127;-60
2022/10/18 03:36:56;;;;;;;31.33;23.92;;;;;;;18.67;71.39;100760.13;5113371;28;20048;-64
2022/10/18 03:39:28;;;;;;;33.58;24.45;;;;;;;18.67;71.68;100753.94;5111834;28;20083;-61
2022/10/18 03:41:55;;;;;;;36.63;25.77;;;;;;;18.68;71.52;100752.97;5113063;28;20048;-60
2022/10/18 03:44:21;;;;;;;34.47;26.30;;;;;;;18.66;71.25;100753.13;5113041;28;20562;-63
2022/10/18 03:46:48;;;;;;;38.50;25.83;;;;;;;18.66;71.46;100749.59;5112790;28;20491;-61
2022/10/18 03:49:15;;;;;;;37.63;27.33;;;;;;;18.66;71.30;100754.91;5112839;28;20039;-61
2022/10/18 03:51:42;;;;;;;33.75;24.10;;;;;;;18.66;71.68;100758.44;5112025;28;20043;-64
2022/10/18 03:54:08;;;;;;;40.75;27.38;;;;;;;18.65;71.59;100756.72;5112826;28;20088;-62
2022/10/18 03:56:35;;;;;;;37.50;26.80;;;;;;;18.66;71.52;100754.91;5112901;28;20051;-60
2022/10/18 03:59:03;;;;;;;38.97;27.15;;;;;;;18.66;71.58;100745.13;5112792;28;20713;-60
2022/10/18 04:01:30;;;;;;;36.40;26.75;;;;;;;18.65;71.62;100746.06;5112527;28;20105;-61
2022/10/18 04:03:56;;;;;;;34.85;25.88;;;;;;;18.66;71.62;100744.25;5111546;28;20096;-62
2022/10/18 04:06:23;;;;;;;41.33;28.08;;;;;;;18.66;71.52;100745.13;5112635;28;20083;-60
2022/10/18 04:08:50;;;;;;;41.15;25.50;;;;;;;18.66;71.71;100739.78;5112502;28;20460;-60
2022/10/18 04:11:16;;;;;;;38.92;26.60;;;;;;;18.67;71.44;100743.28;5112330;28;20090;-63
2022/10/18 04:13:43;;;;;;;33.72;24.83;;;;;;;18.66;71.59;100738.91;5112486;28;20095;-59
2022/10/18 04:16:09;;;;;;;38.00;25.73;;;;;;;18.66;71.74;100733.59;5112288;28;20055;-60
2022/10/18 04:18:36;;;;;;;37.85;25.08;;;;;;;18.66;71.41;100738.91;5112151;28;20505;-60
2022/10/18 04:21:03;;;;;;;33.63;24.33;;;;;;;18.66;71.59;100745.13;5112354;28;20079;-60
2022/10/18 04:23:29;;;;;;;32.88;25.15;;;;;;;18.65;71.57;100739.91;5112541;28;20126;-61
2022/10/18 04:26:01;;;;;;;36.17;24.30;;;;;;;18.65;71.48;100739.91;5112598;28;20534;-61
2022/10/18 04:28:28;;;;;;;34.38;22.98;;;;;;;18.64;71.50;100746.19;5111966;28;20100;-60
2022/10/18 04:30:55;;;;;;;40.70;24.02;;;;;;;18.62;71.34;100748.97;5112257;28;20151;-63
2022/10/18 04:33:22;;;;;;;33.63;23.83;;;;;;;18.61;71.09;100757.91;5112227;28;20066;-61
2022/10/18 04:35:51;;;;;;;33.83;23.73;;;;;;;18.58;71.46;100753.66;5112151;28;20290;-61
2022/10/18 04:38:19;;;;;;;31.27;21.83;;;;;;;18.55;71.21;100745.94;5110604;28;20617;-60
2022/10/18 04:40:45;;;;;;;34.45;22.67;;;;;;;18.56;71.34;100752.09;5110708;28;20127;-60
2022/10/18 04:43:12;;;;;;;34.92;23.60;;;;;;;18.55;71.48;100750.41;5111774;28;20105;-61
2022/10/18 04:45:39;;;;;;;32.30;21.10;;;;;;;18.53;71.52;100745.16;5093834;28;20050;-60
2022/10/18 04:48:05;;;;;;;40.92;22.85;;;;;;;18.52;71.57;100751.47;5111744;28;20062;-62
2022/10/18 04:50:32;;;;;;;34.30;24.13;;;;;;;18.52;71.67;100750.63;5111885;28;20105;-61
2022/10/18 04:52:59;;;;;;;33.90;24.23;;;;;;;18.51;71.31;100752.44;5111766;28;20090;-60
2022/10/18 04:55:25;;;;;;;37.90;25.13;;;;;;;18.50;71.30;100748.06;5111854;28;20389;-63
2022/10/18 04:57:52;;;;;;;34.00;22.77;;;;;;;18.49;71.69;100749.91;5111540;28;20044;-61
2022/10/18 05:00:19;;;;;;;37.67;24.30;;;;;;;18.49;71.54;100760.56;5111629;28;20130;-61
2022/10/18 05:02:45;;;;;;;41.58;25.60;;;;;;;18.48;71.62;100776.66;5111594;28;20479;-62
2022/10/18 05:05:12;;;;;;;33.72;24.13;;;;;;;18.47;71.41;100772.31;5111697;28;20044;-60
2022/10/18 05:07:40;;;;;;;36.03;24.63;;;;;;;18.47;71.37;100769.63;5111583;28;20039;-62
2022/10/18 05:10:07;;;;;;;32.03;23.60;;;;;;;18.47;71.41;100774.97;5111290;28;20568;-59
2022/10/18 05:12:34;;;;;;;35.05;24.38;;;;;;;18.45;71.65;100779.56;5111483;28;20079;-61
2022/10/18 05:15:01;;;;;;;35.88;24.63;;;;;;;18.45;71.35;100777.75;5111706;28;20100;-60
2022/10/18 05:17:27;;;;;;;38.42;25.13;;;;;;;18.44;71.60;100783.19;5111780;28;20101;-60
2022/10/18 05:19:54;;;;;;;38.72;25.30;;;;;;;18.43;71.56;100771.66;5111309;28;20407;-61
2022/10/18 05:22:21;;;;;;;40.05;25.33;;;;;;;18.42;71.57;100777.09;5111443;28;20052;-61
2022/10/18 05:24:47;;;;;;;38.42;26.33;;;;;;;18.41;71.59;100768.28;5111366;28;20146;-61
2022/10/18 05:27:14;;;;;;;39.80;26.23;;;;;;;18.41;71.43;100767.41;5111242;28;20158;-62
2022/10/18 05:29:41;;;;;;;41.00;25.13;;;;;;;18.40;71.56;100765.72;5109928;28;20574;-61
2022/10/18 05:32:07;;;;;;;37.55;25.13;;;;;;;18.39;71.47;100761.34;5111405;28;20071;-61
2022/10/18 05:34:35;;;;;;;46.10;25.10;;;;;;;18.38;71.94;100763.16;5111201;28;20056;-61
2022/10/18 05:37:02;;;;;;;34.85;24.27;;;;;;;18.39;71.65;100764.03;5111349;28;20048;-61
2022/10/18 05:39:28;;;;;;;31.50;22.73;;;;;;;18.38;71.81;100765.81;5111091;28;20101;-62
2022/10/18 05:41:56;;;;;;;34.75;24.65;;;;;;;18.37;71.42;100766.78;5111296;28;20044;-61
2022/10/18 05:44:23;;;;;;;33.85;23.35;;;;;;;18.37;71.41;100756.13;5109987;28;20109;-63
2022/10/18 05:46:50;;;;;;;34.67;22.77;;;;;;;18.34;71.35;100746.56;5111487;28;20083;-60
2022/10/18 05:49:16;;;;;;;33.70;24.40;;;;;;;18.34;71.08;100759.88;5111055;28;20481;-63
2022/10/18 05:51:43;;;;;;;31.08;22.20;;;;;;;18.33;71.24;100760.84;5111163;28;20090;-61
2022/10/18 05:54:13;;;;;;;32.10;23.98;;;;;;;18.31;71.58;100764.56;5111332;28;20082;-60
2022/10/18 05:56:40;;;;;;;32.30;22.45;;;;;;;18.32;71.26;100763.63;5110010;28;20051;-60
2022/10/18 05:59:10;;;;;;;35.10;24.25;;;;;;;18.30;71.24;100765.53;5109750;28;20043;-63
2022/10/18 06:01:39;;;;;;;33.90;23.10;;;;;;;18.28;71.45;100770.97;5110001;28;20086;-61
2022/10/18 06:04:06;;;;;;;34.10;23.85;;;;;;;18.28;71.22;100775.47;5109675;28;20097;-61
2022/10/18 06:06:33;;;;;;;36.75;25.10;;;;;;;18.27;71.22;100789.78;5110462;28;20052;-61
2022/10/18 06:09:02;;;;;;;36.58;23.25;;;;;;;18.25;71.49;100787.22;5110646;28;20062;-61
2022/10/18 06:11:29;;;;;;;36.50;24.70;;;;;;;18.24;71.58;100788.16;5110762;28;20090;-60
2022/10/18 06:13:59;;;;;;;37.28;25.73;;;;;;;18.23;71.40;100787.31;5110660;28;20074;-60
2022/10/18 06:16:26;;;;;;;38.08;24.17;;;;;;;18.22;71.43;100782.09;5114340;28;20499;-62
2022/10/18 06:18:58;;;;;;;34.72;23.08;;;;;;;18.22;71.42;100779.44;5114350;28;20385;-62
2022/10/18 06:21:26;;;;;;;32.58;21.75;;;;;;;18.21;71.68;100785.75;5114172;28;20430;-63
2022/10/18 06:23:58;;;;;;;33.53;22.33;;;;;;;18.19;71.58;100788.50;5111975;28;20048;-62
2022/10/18 06:26:26;;;;;;;35.75;22.48;;;;;;;18.21;71.75;100791.06;5113703;28;20069;-61
2022/10/18 06:28:53;;;;;;;36.95;22.98;;;;;;;18.20;71.81;100790.22;5113550;28;20134;-60
2022/10/18 06:31:20;;;;;;;38.53;24.15;;;;;;;18.21;71.69;100799.06;5113099;28;20105;-62
2022/10/18 06:33:46;;;;;;;35.72;22.40;;;;;;;18.22;71.73;100800.75;5114493;28;20093;-60
2022/10/18 06:36:16;;;;;;;40.13;24.50;;;;;;;18.21;71.72;100801.72;5114549;28;20549;-60
2022/10/18 06:38:43;;;;;;;44.47;23.88;;;;;;;18.22;71.64;100801.63;5112782;28;20047;-60
2022/10/18 06:41:10;;;;;;;39.15;23.70;;;;;;;18.22;71.55;100809.63;5114179;28;20545;-61
2022/10/18 06:43:37;;;;;;;41.63;24.00;;;;;;;18.23;71.32;100813.13;5114226;28;20056;-62
2022/10/18 06:46:06;;;;;;;39.85;23.42;;;;;;;18.22;71.66;100825.59;5114201;28;20071;-60
2022/10/18 06:48:35;;;;;;;65.88;24.48;;;;;;;18.21;71.36;100823.88;5114116;28;20071;-61
2022/10/18 06:51:04;;;;;;;39.17;24.17;;;;;;;18.22;71.19;100822.06;5114205;28;20048;-63
2022/10/18 06:53:33;;;;;;;38.47;22.52;;;;;;;18.22;71.12;100827.41;5112655;28;20468;-61
2022/10/18 06:56:06;;;;;;;38.85;22.23;;;;;;;18.21;71.23;100839.88;5113119;28;20158;-62
2022/10/18 06:58:34;;;;;;;36.58;21.52;;;;;;;18.21;71.02;100849.69;5112637;28;20090;-61
2022/10/18 07:01:14;;;;;;;31.35;20.48;;;;;;;18.17;71.64;100848.22;5113880;28;20079;-62
2022/10/18 07:03:42;;;;;;;34.30;20.30;;;;;;;18.20;71.12;100846.16;5113959;28;20131;-61
2022/10/18 07:06:11;;;;;;;33.22;19.70;;;;;;;18.18;71.03;100845.44;5112772;28;20048;-63
2022/10/18 07:08:39;;;;;;;36.67;20.67;;;;;;;18.18;71.08;100848.09;5113783;28;20522;-62
2022/10/18 07:11:06;;;;;;;35.95;20.98;;;;;;;18.17;71.00;100853.53;5112519;28;20051;-61
2022/10/18 07:13:33;;;;;;;37.78;22.05;;;;;;;18.16;70.74;100854.50;5112464;28;20054;-62
2022/10/18 07:16:03;;;;;;;38.17;21.65;;;;;;;18.13;71.16;100866.22;5113749;28;20138;-59
2022/10/18 07:18:31;;;;;;;33.38;20.75;;;;;;;18.12;71.23;100866.34;5112268;28;20102;-62
2022/10/18 07:21:03;;;;;;;36.38;22.42;;;;;;;18.09;71.03;100862.91;5112195;28;20104;-60
2022/10/18 07:23:35;;;;;;;38.92;22.23;;;;;;;18.09;71.06;100865.59;5112807;28;20078;-60
2022/10/18 07:26:10;;;;;;;38.30;22.05;;;;;;;18.09;71.38;100862.91;5111275;28;20060;-62
2022/10/18 07:28:37;;;;;;;39.63;21.77;;;;;;;18.10;71.20;100859.28;5113292;28;20059;-64
2022/10/18 07:31:05;;;;;;;37.22;21.55;;;;;;;18.08;71.32;100863.91;5113271;28;20048;-61
2022/10/18 07:33:32;;;;;;;37.17;22.08;;;;;;;18.09;70.98;100868.25;5111971;28;20048;-61
2022/10/18 07:36:04;;;;;;;38.83;22.23;;;;;;;18.06;71.00;100870.25;5113155;28;20112;-63
2022/10/18 07:38:31;;;;;;;34.95;20.30;;;;;;;18.07;71.05;100872.81;5111768;28;20086;-61
2022/10/18 07:41:03;;;;;;;34.05;18.33;;;;;;;18.05;71.41;100869.41;5113171;28;20075;-61
2022/10/18 07:43:30;;;;;;;33.35;18.20;;;;;;;18.07;71.19;100863.97;5113164;28;20047;-61
2022/10/18 07:45:59;;;;;;;35.33;19.73;;;;;;;18.08;71.20;100884.34;5113144;28;20134;-60
2022/10/18 07:48:26;;;;;;;28.63;18.08;;;;;;;18.07;70.99;100883.47;5111594;28;20112;-63
2022/10/18 07:50:53;;;;;;;33.00;18.55;;;;;;;18.07;70.85;100883.47;5113174;28;20043;-59
2022/10/18 07:53:19;;;;;;;33.88;19.75;;;;;;;18.06;71.22;100892.41;5112955;28;20131;-60
2022/10/18 07:55:46;;;;;;;33.53;18.83;;;;;;;18.05;71.18;100890.72;5112659;28;20051;-61
2022/10/18 07:58:13;;;;;;;29.60;16.50;;;;;;;18.04;70.71;100889.00;5112669;28;20087;-60
2022/10/18 08:00:39;;;;;;;30.58;16.83;;;;;;;18.03;70.86;100897.97;5112631;28;20047;-63
2022/10/18 08:03:06;;;;;;;30.23;18.33;;;;;;;18.03;70.90;100902.44;5112619;28;20105;-62
2022/10/18 08:05:33;;;;;;;30.27;17.50;;;;;;;18.03;71.26;100902.44;5112788;28;20079;-60
2022/10/18 08:07:59;;;;;;;35.88;19.45;;;;;;;18.03;70.69;100902.44;5112539;28;20126;-64
2022/10/18 08:10:35;;;;;;;29.60;18.27;;;;;;;18.03;70.73;100899.78;5112682;28;20050;-62
2022/10/18 08:13:01;;;;;;;32.80;17.95;;;;;;;18.03;70.75;100899.78;5111250;28;20154;-60
2022/10/18 08:15:28;;;;;;;35.15;17.08;;;;;;;18.04;70.79;100905.00;5112440;28;20040;-62
2022/10/18 08:17:54;;;;;;;32.83;18.13;;;;;;;18.05;70.93;100896.03;5112751;28;20074;-61
2022/10/18 08:20:21;;;;;;;28.73;16.58;;;;;;;18.08;70.91;100900.34;5112307;28;20135;-60
2022/10/18 08:22:56;;;;;;;28.85;16.23;;;;;;;18.12;71.18;100900.97;5112525;28;20051;-61
2022/10/18 08:25:27;;;;;;;31.15;16.27;;;;;;;18.14;71.05;100907.91;5112212;28;20412;-63
2022/10/18 08:27:54;;;;;;;30.35;15.30;;;;;;;18.18;71.11;100917.38;5110986;28;20124;-61
2022/10/18 08:30:22;;;;;;;26.33;15.88;;;;;;;18.22;70.78;100924.22;5112166;28;20090;-61
2022/10/18 08:32:48;;;;;;;28.05;17.20;;;;;;;18.26;70.67;100914.16;5112019;28;20108;-62
2022/10/18 08:35:15;;;;;;;23.95;14.50;;;;;;;18.31;70.59;100904.03;5112412;28;20088;-61
2022/10/18 08:37:44;;;;;;;29.23;17.20;;;;;;;18.34;70.82;100901.16;5111821;28;20079;-61
2022/10/18 08:40:14;;;;;;;25.77;15.95;;;;;;;18.40;70.84;100915.00;5111779;28;20073;-63
2022/10/18 08:43:02;;;;;;;26.65;16.40;;;;;;;18.45;69.95;100929.69;5110619;28;20047;-61
2022/10/18 08:45:33;;;;;;;25.70;15.73;;;;;;;18.55;70.00;100940.56;5111772;28;20048;-63
2022/10/18 08:48:38;;;;;;;27.52;16.75;;;;;;;18.54;69.19;100933.50;5112023;28;20047;-61
2022/10/18 08:51:21;;;;;;;25.50;16.15;;;;;;;18.58;69.02;100934.16;5111747;28;20055;-62
2022/10/18 08:54:00;;;;;;;23.83;15.10;;;;;;;18.59;68.51;100949.19;5111981;28;20503;-62
2022/10/18 08:56:27;;;;;;;28.42;17.90;;;;;;;18.61;68.56;100945.44;5110614;28;20051;-62
2022/10/18 08:58:53;;;;;;;31.55;17.48;;;;;;;18.59;68.56;100947.38;5111658;28;20089;-60
2022/10/18 09:01:32;;;;;;;30.33;18.25;;;;;;;18.53;67.98;100939.81;5111533;28;20070;-60
2022/10/18 09:04:14;;;;;;;28.92;17.75;;;;;;;18.53;68.59;100945.13;5111859;28;20051;-63
2022/10/18 09:07:00;;;;;;;31.75;20.08;;;;;;;18.52;69.04;100947.91;5112023;28;20135;-61
2022/10/18 09:09:59;;;;;;;35.33;17.55;;;;;;;18.53;68.55;100957.59;5111459;28;20070;-61
2022/10/18 09:12:35;;;;;;;36.17;18.60;;;;;;;18.57;68.06;100954.63;5111808;28;20058;-60
2022/10/18 09:15:26;;;;;;;29.35;17.33;;;;;;;18.58;68.43;100944.81;5110741;28;20040;-61
2022/10/18 09:18:02;;;;;;;33.42;18.55;;;;;;;18.65;68.34;100953.22;5111543;28;20048;-60
2022/10/18 09:20:56;;;;;;;30.27;17.60;;;;;;;18.62;67.78;100952.47;5111955;28;20104;-60
2022/10/18 09:23:44;;;;;;;27.10;16.45;;;;;;;18.68;67.53;100940.50;5109595;28;20089;-59
2022/10/18 09:26:19;;;;;;;29.98;15.77;;;;;;;18.68;67.37;100947.66;5111852;28;20079;-61
2022/10/18 09:29:09;;;;;;;30.95;17.95;;;;;;;18.68;66.74;100958.31;5110225;28;20556;-61
2022/10/18 09:32:03;;;;;;;32.17;16.75;;;;;;;18.68;67.04;100971.66;5110422;28;20488;-62
2022/10/18 09:34:49;;;;;;;28.42;15.30;;;;;;;18.68;66.95;100971.66;5111374;28;20120;-62
2022/10/18 09:37:19;;;;;;;29.63;15.55;;;;;;;18.65;67.11;100967.41;5111428;28;20138;-61
2022/10/18 09:39:49;;;;;;;30.33;15.93;;;;;;;18.65;67.33;100966.56;5111449;28;20113;-60
2022/10/18 09:42:29;;;;;;;27.02;15.70;;;;;;;18.61;67.36;100964.09;5111474;28;20055;-62
2022/10/18 09:45:12;;;;;;;27.42;14.18;;;;;;;18.59;67.28;100954.53;5111443;28;20051;-61
2022/10/18 09:47:46;;;;;;;23.42;14.43;;;;;;;18.62;67.19;100957.81;5110397;28;20093;-60
2022/10/18 09:50:28;;;;;;;28.50;16.08;;;;;;;18.61;67.73;100965.91;5113351;28;20089;-61
2022/10/18 09:53:11;;;;;;;24.60;14.30;;;;;;;18.62;67.34;100959.63;5115094;28;20043;-60
2022/10/18 09:56:01;;;;;;;24.98;14.32;;;;;;;18.67;67.33;100959.28;5115204;28;20124;-61
2022/10/18 09:58:43;;;;;;;23.35;13.27;;;;;;;18.67;66.83;100968.16;5115097;28;20120;-62
2022/10/18 10:01:14;;;;;;;22.02;12.50;;;;;;;18.71;66.89;100972.31;5115234;28;20039;-61
2022/10/18 10:03:41;;;;;;;23.17;11.38;;;;;;;18.73;66.93;100959.69;5114948;28;20100;-61
2022/10/18 10:06:11;;;;;;;23.67;12.02;;;;;;;18.72;66.54;100952.66;5113582;28;20051;-62
2022/10/18 10:08:43;;;;;;;24.75;12.05;;;;;;;18.74;66.41;100961.44;5114932;28;20056;-61
2022/10/18 10:11:49;;;;;;;26.37;12.83;;;;;;;18.74;66.53;100963.22;5113855;28;20101;-60
2022/10/18 10:14:24;;;;;;;25.65;11.30;;;;;;;18.82;66.57;100963.53;5054844;28;20105;-60
2022/10/18 10:17:19;;;;;;;17.00;8.90;;;;;;;18.84;66.37;100956.25;5110405;28;20051;-61
2022/10/18 10:19:57;;;;;;;16.27;9.18;;;;;;;18.87;65.25;100963.19;5114735;28;20085;-61
2022/10/18 10:22:38;;;;;;;17.35;8.82;;;;;;;18.91;65.21;100966.50;5114743;28;20048;-61
2022/10/18 10:25:06;;;;;;;17.17;8.43;;;;;;;19.00;66.05;100965.81;5114677;28;20083;-61
2022/10/18 10:27:42;;;;;;;15.25;8.57;;;;;;;19.06;65.76;100959.22;5114568;28;20548;-60
2022/10/18 10:30:27;;;;;;;16.15;8.27;;;;;;;19.14;65.82;100965.66;5114389;28;20101;-60
2022/10/18 10:32:55;;;;;;;18.30;9.20;;;;;;;19.29;66.21;100960.16;5113407;28;20051;-61
2022/10/18 10:35:34;;;;;;;23.20;9.25;;;;;;;19.40;66.16;100959.38;5114467;28;20044;-61
2022/10/18 10:38:26;;;;;;;14.68;8.32;;;;;;;19.56;66.00;100971.53;5114013;28;20389;-62
2022/10/18 10:40:53;;;;;;;13.70;6.65;;;;;;;19.67;65.59;100977.75;5113116;28;20090;-60
2022/10/18 10:43:35;;;;;;;11.82;5.43;;;;;;;19.76;64.06;100968.19;5112987;28;20114;-64
2022/10/18 10:46:19;;;;;;;10.30;4.97;;;;;;;19.89;64.13;100952.06;5114475;28;20522;-62
2022/10/18 10:48:54;;;;;;;11.25;5.18;;;;;;;20.03;64.02;100967.06;5113980;28;20051;-61
2022/10/18 10:51:40;;;;;;;13.52;6.82;;;;;;;20.20;64.26;100966.69;5113004;28;20051;-64
2022/10/18 10:54:16;;;;;;;16.58;5.65;;;;;;;20.31;63.23;100958.69;5114214;28;20118;-61
2022/10/18 10:57:04;;;;;;;9.45;4.75;;;;;;;20.46;63.54;100958.44;5113926;28;20051;-61
2022/10/18 10:59:50;;;;;;;10.40;4.85;;;;;;;20.63;63.29;100965.97;5113708;28;20131;-61
2022/10/18 11:02:27;;;;;;;11.38;4.97;;;;;;;20.82;63.79;100967.16;5112717;28;20060;-61
2022/10/18 11:04:55;;;;;;;8.35;3.28;;;;;;;21.00;63.54;100963.97;5112749;28;20077;-61
2022/10/18 11:07:43;;;;;;;11.85;4.10;;;;;;;21.13;61.59;100956.63;5112629;28;20069;-61
2022/10/18 11:10:09;;;;;;;9.93;4.35;;;;;;;21.31;62.38;100972.16;5113647;28;20552;-61
2022/10/18 11:12:42;;;;;;;8.55;3.20;;;;;;;21.44;60.12;100967.47;5113737;28;20070;-63
2022/10/18 11:15:14;;;;;;;8.70;2.63;;;;;;;21.59;58.96;100961.78;5113788;28;20043;-62
2022/10/18 11:17:45;;;;;;;8.75;2.53;;;;;;;21.80;60.99;100963.63;5112656;28;20047;-60
2022/10/18 11:20:11;;;;;;;9.05;2.63;;;;;;;22.06;60.80;100963.22;5113588;28;20671;-60
2022/10/18 11:22:50;;;;;;;9.23;3.35;;;;;;;22.39;59.11;100962.09;5113483;28;20082;-63
2022/10/18 11:25:20;;;;;;;9.90;3.35;;;;;;;22.91;62.70;100954.91;5113526;28;20055;-61
2022/10/18 11:27:56;;;;;;;9.80;3.65;;;;;;;23.53;59.94;100962.72;5113562;28;20059;-60